Time;durP1;ratioP1;P1;durP2;ratioP2;P2;SDS_P1;SDS_P2;PMS_P1;PMS_P2;Temp;Humidity;BMP_temperature;BMP_pressure;BME280_temperature;BME280_humidity;BME280_pressure;Samples;Min_cycle;Max_cycle;Signal;HPM_P1;HPM_P2
2022/04/27 00:00:28;;;;;;;7.03;5.20;;;;;;;;;;5034682;28;20037;-62
2022/04/27 00:02:56;;;;;;;8.40;5.00;;;;;;;;;;5031924;28;20041;-63
2022/04/27 00:05:21;;;;;;;5.63;4.88;;;;;;;;;;5032745;28;20056;-63
2022/04/27 00:07:47;;;;;;;7.82;5.35;;;;;;;;;;5035271;28;20806;-63
2022/04/27 00:10:13;;;;;;;7.68;5.55;;;;;;;;;;5036778;28;20026;-63
2022/04/27 00:12:39;;;;;;;8.10;5.25;;;;;;;;;;5038508;28;20032;-63
2022/04/27 00:15:06;;;;;;;5.57;4.57;;;;;;;;;;5035544;28;20116;-63
2022/04/27 00:17:32;;;;;;;6.35;4.72;;;;;;;;;;5035115;28;20096;-63
2022/04/27 00:19:58;;;;;;;8.82;5.00;;;;;;;;;;5033321;28;20133;-63
2022/04/27 00:22:24;;;;;;;6.10;4.88;;;;;;;;;;5032190;28;20037;-63
2022/04/27 00:24:49;;;;;;;7.30;5.70;;;;;;;;;;5037485;28;20021;-63
2022/04/27 00:27:15;;;;;;;10.30;5.55;;;;;;;;;;5037145;28;20029;-62
2022/04/27 00:29:41;;;;;;;6.47;5.15;;;;;;;;;;5033766;28;20041;-63
2022/04/27 00:32:07;;;;;;;6.05;4.57;;;;;;;;;;5031673;28;20030;-63
2022/04/27 00:34:33;;;;;;;7.00;4.68;;;;;;;;;;5038149;28;20462;-63
2022/04/27 00:36:59;;;;;;;6.93;4.82;;;;;;;;;;5041198;28;20631;-62
2022/04/27 00:39:24;;;;;;;5.60;4.45;;;;;;;;;;5043768;28;20033;-62
2022/04/27 00:41:59;;;;;;;4.80;4.40;;;;;;;;;;5037475;28;20485;-62
2022/04/27 00:44:29;;;;;;;7.85;5.00;;;;;;;;;;5037951;28;20037;-62
2022/04/27 00:46:56;;;;;;;7.35;5.68;;;;;;;;;;5041112;28;20482;-62
2022/04/27 00:49:21;;;;;;;5.55;4.75;;;;;;;;;;5035237;28;20429;-63
2022/04/27 00:51:48;;;;;;;5.35;4.82;;;;;;;;;;5038942;28;20025;-63
2022/04/27 00:54:14;;;;;;;6.47;4.70;;;;;;;;;;5038347;28;20500;-62
2022/04/27 00:56:42;;;;;;;10.65;5.40;;;;;;;;;;5032897;28;20048;-62
2022/04/27 00:59:09;;;;;;;5.90;5.30;;;;;;;;;;5034604;28;20021;-62
2022/04/27 01:01:35;;;;;;;7.07;5.97;;;;;;;;;;5044903;28;20025;-63
2022/04/27 01:04:01;;;;;;;6.97;5.85;;;;;;;;;;5038018;28;20045;-63
2022/04/27 01:06:27;;;;;;;7.72;6.07;;;;;;;;;;5038449;28;20099;-63
2022/04/27 01:08:53;;;;;;;9.13;6.32;;;;;;;;;;5038322;28;20021;-62
2022/04/27 01:11:19;;;;;;;8.88;5.93;;;;;;;;;;5035129;28;20060;-63
2022/04/27 01:13:45;;;;;;;6.75;5.97;;;;;;;;;;5039008;28;20565;-62
2022/04/27 01:16:11;;;;;;;6.25;5.68;;;;;;;;;;5038051;28;20529;-63
2022/04/27 01:18:36;;;;;;;9.07;6.07;;;;;;;;;;5038719;28;20053;-62
2022/04/27 01:21:03;;;;;;;7.43;5.72;;;;;;;;;;5039744;28;20479;-63
2022/04/27 01:23:29;;;;;;;11.65;6.50;;;;;;;;;;5038817;28;20029;-63
2022/04/27 01:25:57;;;;;;;6.57;5.85;;;;;;;;;;5037166;28;20036;-61
2022/04/27 01:28:24;;;;;;;8.15;6.70;;;;;;;;;;5035892;28;20030;-63
2022/04/27 01:31:01;;;;;;;8.35;6.88;;;;;;;;;;5041010;28;20025;-62
2022/04/27 01:33:28;;;;;;;6.78;5.82;;;;;;;;;;5038009;28;20394;-63
2022/04/27 01:35:54;;;;;;;7.05;6.30;;;;;;;;;;5037920;28;20091;-62
2022/04/27 01:38:20;;;;;;;7.93;6.40;;;;;;;;;;5039125;28;20080;-63
2022/04/27 01:40:47;;;;;;;7.15;6.45;;;;;;;;;;5038661;28;20022;-63
2022/04/27 01:43:16;;;;;;;11.68;7.15;;;;;;;;;;5038615;28;20079;-63
2022/04/27 01:45:43;;;;;;;7.00;6.30;;;;;;;;;;5039062;28;20094;-63
2022/04/27 01:48:10;;;;;;;7.88;6.47;;;;;;;;;;5040616;28;20041;-62
2022/04/27 01:50:37;;;;;;;7.22;6.53;;;;;;;;;;5035479;28;20053;-63
2022/04/27 01:55:48;;;;;;;9.20;6.63;;;;;;;;;;5038279;28;20043;-62
2022/04/27 01:58:13;;;;;;;13.43;7.07;;;;;;;;;;5040439;28;20044;-63
2022/04/27 02:00:39;;;;;;;8.85;6.75;;;;;;;;;;5035440;28;20029;-63
2022/04/27 02:03:05;;;;;;;10.27;6.82;;;;;;;;;;5037547;28;20458;-63
2022/04/27 02:05:31;;;;;;;7.78;6.88;;;;;;;;;;5035966;28;20082;-63
2022/04/27 02:07:57;;;;;;;9.85;6.63;;;;;;;;;;5034222;28;20029;-62
2022/04/27 02:10:23;;;;;;;10.05;6.75;;;;;;;;;;5035485;28;20029;-62
2022/04/27 02:12:49;;;;;;;7.80;6.65;;;;;;;;;;5041776;28;20032;-63
2022/04/27 02:15:14;;;;;;;11.43;7.30;;;;;;;;;;5037537;28;20029;-59
2022/04/27 02:17:40;;;;;;;11.82;7.13;;;;;;;;;;5041490;28;20541;-62
2022/04/27 02:20:08;;;;;;;9.52;7.25;;;;;;;;;;5039138;28;20037;-63
2022/04/27 02:22:34;;;;;;;10.60;7.25;;;;;;;;;;5034957;28;20521;-62
2022/04/27 02:25:01;;;;;;;13.02;7.80;;;;;;;;;;5037896;28;20034;-63
2022/04/27 02:27:28;;;;;;;11.85;7.40;;;;;;;;;;5040212;28;20064;-62
2022/04/27 02:29:55;;;;;;;10.35;7.55;;;;;;;;;;5036388;28;20068;-62
2022/04/27 02:32:21;;;;;;;10.40;7.22;;;;;;;;;;5034045;28;20536;-62
2022/04/27 02:34:48;;;;;;;10.07;7.78;;;;;;;;;;5031491;28;20164;-63
2022/04/27 02:37:13;;;;;;;11.20;8.02;;;;;;;;;;5033287;28;20037;-62
2022/04/27 02:39:39;;;;;;;8.70;7.43;;;;;;;;;;5038557;28;20488;-62
2022/04/27 02:42:06;;;;;;;11.05;7.50;;;;;;;;;;5039475;28;20032;-63
2022/04/27 02:44:32;;;;;;;8.27;7.47;;;;;;;;;;5036011;28;20104;-62
2022/04/27 02:46:57;;;;;;;13.07;8.20;;;;;;;;;;5034823;28;20112;-63
2022/04/27 02:52:07;;;;;;;7.90;6.78;;;;;;;;;;5036707;28;20132;-63
2022/04/27 02:54:33;;;;;;;11.40;6.88;;;;;;;;;;5035410;28;20506;-62
2022/04/27 02:56:59;;;;;;;7.88;6.53;;;;;;;;;;5033725;28;20040;-63
2022/04/27 02:59:24;;;;;;;7.53;6.55;;;;;;;;;;5033602;28;20024;-62
2022/04/27 03:01:50;;;;;;;8.88;6.43;;;;;;;;;;5034609;28;20025;-63
2022/04/27 03:04:16;;;;;;;10.32;7.45;;;;;;;;;;5033239;28;20041;-63
2022/04/27 03:06:41;;;;;;;6.57;5.97;;;;;;;;;;5034263;28;20032;-63
2022/04/27 03:09:07;;;;;;;9.52;6.22;;;;;;;;;;5039346;28;20127;-62
2022/04/27 03:11:33;;;;;;;7.93;6.05;;;;;;;;;;5032686;28;20389;-63
2022/04/27 03:13:58;;;;;;;8.90;5.75;;;;;;;;;;5034146;28;20043;-62
2022/04/27 03:16:24;;;;;;;6.35;5.75;;;;;;;;;;5042165;28;20037;-62
2022/04/27 03:18:50;;;;;;;7.38;5.50;;;;;;;;;;5040492;28;20067;-63
2022/04/27 03:21:16;;;;;;;6.15;5.60;;;;;;;;;;5040315;28;20045;-62
2022/04/27 03:23:41;;;;;;;10.38;5.60;;;;;;;;;;5034244;28;20041;-62
2022/04/27 03:26:07;;;;;;;8.93;6.00;;;;;;;;;;5040610;28;20111;-63
2022/04/27 03:28:33;;;;;;;8.48;5.68;;;;;;;;;;5038616;28;20026;-62
2022/04/27 03:30:59;;;;;;;6.65;5.65;;;;;;;;;;5036988;28;20095;-63
2022/04/27 03:33:24;;;;;;;8.40;5.88;;;;;;;;;;5041783;28;20527;-62
2022/04/27 03:35:50;;;;;;;7.88;6.28;;;;;;;;;;5035202;28;20547;-62
2022/04/27 03:38:18;;;;;;;8.70;6.45;;;;;;;;;;5035481;28;20112;-62
2022/04/27 03:40:44;;;;;;;7.43;5.88;;;;;;;;;;5032551;28;20030;-63
2022/04/27 03:43:09;;;;;;;8.00;6.25;;;;;;;;;;5035547;28;20544;-62
2022/04/27 03:45:35;;;;;;;6.60;6.03;;;;;;;;;;5033351;28;20380;-62
2022/04/27 03:48:01;;;;;;;7.45;6.30;;;;;;;;;;5035406;28;20037;-62
2022/04/27 03:50:27;;;;;;;7.22;6.53;;;;;;;;;;5036912;28;20034;-62
2022/04/27 03:52:52;;;;;;;8.57;6.32;;;;;;;;;;5034616;28;20117;-62
2022/04/27 03:55:18;;;;;;;8.00;6.68;;;;;;;;;;5036249;28;20061;-62
2022/04/27 03:57:44;;;;;;;11.02;6.85;;;;;;;;;;5035825;28;20061;-62
2022/04/27 04:00:11;;;;;;;8.57;6.82;;;;;;;;;;5034961;28;20117;-62
2022/04/27 04:02:37;;;;;;;7.28;6.05;;;;;;;;;;5031472;28;20032;-62
2022/04/27 04:05:04;;;;;;;8.88;6.47;;;;;;;;;;5035357;28;20965;-62
2022/04/27 04:07:31;;;;;;;6.97;6.22;;;;;;;;;;5032274;28;20033;-62
2022/04/27 04:09:57;;;;;;;7.85;6.15;;;;;;;;;;5038849;28;20032;-62
2022/04/27 04:12:23;;;;;;;7.05;5.95;;;;;;;;;;5041253;28;20051;-62
2022/04/27 04:14:49;;;;;;;10.40;6.03;;;;;;;;;;5040023;28;20537;-62
2022/04/27 04:17:14;;;;;;;13.57;6.57;;;;;;;;;;5038687;28;20056;-62
2022/04/27 04:19:40;;;;;;;9.05;6.80;;;;;;;;;;5043899;28;20044;-63
2022/04/27 04:22:06;;;;;;;8.82;6.15;;;;;;;;;;5038924;28;20045;-62
2022/04/27 04:24:32;;;;;;;10.93;6.15;;;;;;;;;;5038417;28;20548;-62
2022/04/27 04:29:42;;;;;;;6.93;6.22;;;;;;;;;;5036844;28;20429;-62
2022/04/27 04:32:08;;;;;;;8.68;6.45;;;;;;;;;;5035831;28;20029;-62
2022/04/27 04:34:33;;;;;;;8.32;6.45;;;;;;;;;;5041629;28;20033;-62
2022/04/27 04:36:59;;;;;;;10.02;6.28;;;;;;;;;;5039924;28;20079;-62
2022/04/27 04:39:24;;;;;;;8.20;6.45;;;;;;;;;;5040003;28;20444;-62
2022/04/27 04:41:50;;;;;;;9.02;6.05;;;;;;;;;;5038443;28;20039;-63
2022/04/27 04:44:16;;;;;;;9.82;6.65;;;;;;;;;;5035968;28;20036;-62
2022/04/27 04:46:42;;;;;;;9.40;6.05;;;;;;;;;;5040875;28;20386;-62
2022/04/27 04:49:07;;;;;;;7.40;6.25;;;;;;;;;;5037710;28;20030;-62
2022/04/27 04:51:34;;;;;;;8.35;6.70;;;;;;;;;;5034370;28;20478;-63
2022/04/27 04:53:59;;;;;;;11.07;6.47;;;;;;;;;;5037687;28;20045;-62
2022/04/27 04:56:25;;;;;;;10.20;6.13;;;;;;;;;;5038386;28;20106;-62
2022/04/27 04:58:51;;;;;;;9.20;6.68;;;;;;;;;;5038376;28;20108;-63
2022/04/27 05:01:16;;;;;;;11.57;6.55;;;;;;;;;;5041978;28;20132;-62
2022/04/27 05:03:42;;;;;;;10.10;6.10;;;;;;;;;;5033751;28;20041;-63
2022/04/27 05:06:08;;;;;;;10.02;6.18;;;;;;;;;;5041472;28;20029;-62
2022/04/27 05:08:33;;;;;;;7.18;6.13;;;;;;;;;;5039070;28;22512;-62
2022/04/27 05:10:59;;;;;;;9.18;5.80;;;;;;;;;;5039327;28;20036;-62
2022/04/27 05:13:25;;;;;;;12.40;7.00;;;;;;;;;;5040188;28;20033;-62
2022/04/27 05:15:50;;;;;;;7.70;5.88;;;;;;;;;;5036765;28;20061;-62
2022/04/27 05:18:18;;;;;;;6.70;5.18;;;;;;;;;;5040278;28;20083;-62
2022/04/27 05:20:44;;;;;;;6.10;5.25;;;;;;;;;;5037506;28;20021;-62
2022/04/27 05:23:13;;;;;;;6.20;5.47;;;;;;;;;;5036669;28;20090;-62
2022/04/27 05:25:38;;;;;;;9.30;5.30;;;;;;;;;;5039198;28;20037;-63
2022/04/27 05:28:04;;;;;;;8.32;5.15;;;;;;;;;;5041541;28;20045;-62
2022/04/27 05:33:18;;;;;;;9.57;5.60;;;;;;;;;;5039164;28;20029;-62
2022/04/27 05:35:44;;;;;;;11.43;5.30;;;;;;;;;;5037725;28;20053;-62
2022/04/27 05:38:11;;;;;;;7.25;5.45;;;;;;;;;;5035673;28;20067;-62
2022/04/27 05:40:38;;;;;;;7.07;5.28;;;;;;;;;;5036689;28;20025;-61
2022/04/27 05:43:05;;;;;;;9.32;5.40;;;;;;;;;;5043328;28;20029;-62
2022/04/27 05:45:34;;;;;;;6.90;5.93;;;;;;;;;;5040738;28;20572;-58
2022/04/27 05:48:00;;;;;;;5.82;5.22;;;;;;;;;;5038590;28;20040;-62
2022/04/27 05:50:26;;;;;;;12.02;5.13;;;;;;;;;;5041053;28;20025;-62
2022/04/27 05:52:56;;;;;;;9.57;5.40;;;;;;;;;;5039247;28;20051;-62
2022/04/27 05:55:25;;;;;;;9.07;5.40;;;;;;;;;;5041093;28;20064;-62
2022/04/27 05:57:51;;;;;;;10.13;4.93;;;;;;;;;;5042201;28;20028;-62
2022/04/27 06:00:17;;;;;;;11.15;5.38;;;;;;;;;;5039721;28;20605;-62
2022/04/27 06:02:43;;;;;;;8.13;4.93;;;;;;;;;;5038676;28;20033;-62
2022/04/27 06:05:09;;;;;;;5.53;4.68;;;;;;;;;;5037902;28;20032;-62
2022/04/27 06:07:36;;;;;;;6.68;4.93;;;;;;;;;;5039844;28;20033;-62
2022/04/27 06:10:06;;;;;;;5.93;5.05;;;;;;;;;;5037178;28;20045;-62
2022/04/27 06:12:36;;;;;;;6.70;4.80;;;;;;;;;;5037133;28;20037;-63
2022/04/27 06:15:03;;;;;;;14.10;5.65;;;;;;;;;;5034729;28;20029;-62
2022/04/27 06:17:29;;;;;;;5.97;4.63;;;;;;;;;;5038065;28;20076;-63
2022/04/27 06:19:55;;;;;;;5.75;4.57;;;;;;;;;;5036050;28;20397;-60
2022/04/27 06:22:21;;;;;;;8.43;5.10;;;;;;;;;;5036423;28;20033;-62
2022/04/27 06:24:47;;;;;;;4.68;4.28;;;;;;;;;;5037074;28;20033;-62
2022/04/27 06:27:12;;;;;;;6.72;4.85;;;;;;;;;;5039150;28;20056;-63
2022/04/27 06:29:38;;;;;;;10.95;4.90;;;;;;;;;;5034530;28;20534;-62
2022/04/27 06:32:04;;;;;;;6.07;4.88;;;;;;;;;;5038056;28;20124;-63
2022/04/27 06:34:31;;;;;;;8.00;5.35;;;;;;;;;;5041310;28;20103;-62
2022/04/27 06:36:56;;;;;;;11.55;6.15;;;;;;;;;;5036121;28;20430;-63
2022/04/27 06:39:22;;;;;;;10.15;5.70;;;;;;;;;;5037387;28;20044;-63
2022/04/27 06:41:48;;;;;;;12.38;6.45;;;;;;;;;;5037800;28;20529;-62
2022/04/27 06:44:14;;;;;;;9.25;6.50;;;;;;;;;;5037758;28;20035;-63
2022/04/27 06:46:40;;;;;;;14.60;7.43;;;;;;;;;;5039678;28;20033;-62
2022/04/27 06:49:06;;;;;;;13.45;7.07;;;;;;;;;;5040041;28;20033;-63
2022/04/27 06:51:31;;;;;;;9.57;7.80;;;;;;;;;;5042939;28;20040;-63
2022/04/27 06:53:57;;;;;;;16.05;8.57;;;;;;;;;;5038824;28;20049;-62
2022/04/27 06:56:23;;;;;;;11.23;8.48;;;;;;;;;;5045385;28;20438;-63
2022/04/27 06:58:49;;;;;;;19.15;10.07;;;;;;;;;;5035833;28;20029;-63
2022/04/27 07:01:17;;;;;;;14.30;9.68;;;;;;;;;;5036577;28;20033;-62
2022/04/27 07:03:43;;;;;;;14.40;9.38;;;;;;;;;;5034355;28;20386;-63
2022/04/27 07:06:09;;;;;;;9.40;7.57;;;;;;;;;;5039575;28;20025;-63
2022/04/27 07:08:35;;;;;;;15.48;7.90;;;;;;;;;;5039655;28;20029;-63
2022/04/27 07:11:00;;;;;;;11.90;6.68;;;;;;;;;;5036667;28;20095;-63
2022/04/27 07:13:26;;;;;;;7.45;5.75;;;;;;;;;;5038219;28;20029;-63
2022/04/27 07:15:57;;;;;;;9.15;7.43;;;;;;;;;;5037302;28;20377;-63
2022/04/27 07:18:22;;;;;;;10.07;6.72;;;;;;;;;;5039325;28;20104;-63
2022/04/27 07:20:48;;;;;;;12.48;7.55;;;;;;;;;;5036990;28;20112;-63
2022/04/27 07:23:14;;;;;;;10.05;7.95;;;;;;;;;;5033080;28;20051;-63
2022/04/27 07:25:39;;;;;;;11.82;7.95;;;;;;;;;;5036567;28;20038;-63
2022/04/27 07:28:05;;;;;;;13.35;7.15;;;;;;;;;;5037253;28;20075;-63
2022/04/27 07:30:31;;;;;;;8.32;5.97;;;;;;;;;;5034089;28;20036;-63
2022/04/27 07:32:57;;;;;;;10.25;6.35;;;;;;;;;;5030791;28;20493;-63
2022/04/27 07:35:23;;;;;;;12.00;6.28;;;;;;;;;;5033174;28;20032;-63
2022/04/27 07:37:49;;;;;;;9.77;7.13;;;;;;;;;;5045416;28;20100;-63
2022/04/27 07:40:15;;;;;;;12.25;7.63;;;;;;;;;;5040959;28;20033;-63
2022/04/27 07:42:41;;;;;;;14.07;7.38;;;;;;;;;;5036814;28;20124;-63
2022/04/27 07:45:07;;;;;;;11.52;7.53;;;;;;;;;;5039806;28;20517;-63
2022/04/27 07:47:45;;;;;;;16.25;8.00;;;;;;;;;;5036966;28;20034;-63
2022/04/27 07:50:14;;;;;;;15.85;7.47;;;;;;;;;;5038267;28;20358;-63
2022/04/27 07:52:40;;;;;;;9.35;7.00;;;;;;;;;;5041504;28;20036;-63
2022/04/27 07:55:07;;;;;;;9.43;6.30;;;;;;;;;;5041146;28;20387;-63
2022/04/27 07:57:34;;;;;;;12.63;7.00;;;;;;;;;;5037047;28;20029;-63
2022/04/27 08:00:01;;;;;;;12.60;6.93;;;;;;;;;;5040632;28;20112;-63
2022/04/27 08:02:33;;;;;;;12.60;5.85;;;;;;;;;;5044927;28;20541;-63
2022/04/27 08:05:00;;;;;;;10.02;6.30;;;;;;;;;;5038716;28;20064;-63
2022/04/27 08:07:34;;;;;;;12.10;6.15;;;;;;;;;;5041555;28;20983;-63
2022/04/27 08:10:08;;;;;;;11.98;6.82;;;;;;;;;;5040129;28;20529;-63
2022/04/27 08:12:34;;;;;;;12.25;7.63;;;;;;;;;;5039993;28;20059;-63
2022/04/27 08:15:00;;;;;;;12.70;7.22;;;;;;;;;;5040048;28;20474;-63
2022/04/27 08:17:25;;;;;;;16.05;7.75;;;;;;;;;;5037918;28;20393;-63
2022/04/27 08:21:13;;;;;;;17.25;6.57;;;;;;;;;;5037990;28;20030;-64
2022/04/27 08:22:37;;;;;;;10.45;6.10;;;;;;;;;;5040677;28;20079;-63
2022/04/27 08:25:03;;;;;;;16.50;6.25;;;;;;;;;;5040353;28;20029;-63
2022/04/27 08:27:29;;;;;;;11.45;5.60;;;;;;;;;;5041516;28;20088;-63
2022/04/27 08:29:54;;;;;;;12.00;5.85;;;;;;;;;;5036343;28;20045;-63
2022/04/27 08:32:20;;;;;;;14.13;5.63;;;;;;;;;;5035385;28;20387;-63
2022/04/27 08:34:49;;;;;;;13.80;6.10;;;;;;;;;;5039663;28;20021;-63
2022/04/27 08:37:15;;;;;;;13.38;5.38;;;;;;;;;;5040596;28;20030;-63
2022/04/27 08:39:41;;;;;;;6.97;5.20;;;;;;;;;;5035422;28;20107;-63
2022/04/27 08:42:09;;;;;;;7.82;5.50;;;;;;;;;;5044469;28;20036;-63
2022/04/27 08:44:35;;;;;;;12.30;5.07;;;;;;;;;;5041194;28;20159;-63
2022/04/27 08:47:04;;;;;;;13.00;4.90;;;;;;;;;;5035801;28;20036;-63
2022/04/27 08:49:34;;;;;;;11.13;4.78;;;;;;;;;;5047576;28;20040;-63
2022/04/27 08:52:01;;;;;;;17.60;4.95;;;;;;;;;;5042212;28;20025;-63
2022/04/27 08:54:33;;;;;;;14.40;4.80;;;;;;;;;;5035918;28;20057;-63
2022/04/27 08:56:59;;;;;;;9.43;4.80;;;;;;;;;;5036483;28;20063;-63
2022/04/27 08:59:25;;;;;;;14.93;5.18;;;;;;;;;;5040846;28;20061;-63
2022/04/27 09:01:51;;;;;;;12.65;5.32;;;;;;;;;;5035362;28;20115;-63
2022/04/27 09:04:18;;;;;;;14.02;4.93;;;;;;;;;;5044054;28;20176;-63
2022/04/27 09:06:44;;;;;;;15.07;5.63;;;;;;;;;;5040994;28;20033;-63
2022/04/27 09:09:31;;;;;;;10.70;5.03;;;;;;;;;;5036240;28;20783;-63
2022/04/27 09:11:57;;;;;;;9.93;4.65;;;;;;;;;;5036789;28;20077;-62
2022/04/27 09:14:35;;;;;;;11.60;4.43;;;;;;;;;;5038998;28;20137;-63
2022/04/27 09:22:57;;;;;;;9.13;4.53;;;;;;;;;;5038506;28;20030;-63
2022/04/27 09:25:33;;;;;;;9.75;4.63;;;;;;;;;;5036056;28;20044;-63
2022/04/27 09:28:01;;;;;;;11.38;4.20;;;;;;;;;;5037965;28;20028;-63
2022/04/27 09:30:28;;;;;;;10.75;3.90;;;;;;;;;;5037753;28;20544;-62
2022/04/27 09:32:54;;;;;;;11.05;3.80;;;;;;;;;;5037050;28;20064;-62
2022/04/27 09:35:38;;;;;;;11.88;4.85;;;;;;;;;;5039263;28;20084;-62
2022/04/27 09:38:18;;;;;;;8.90;3.97;;;;;;;;;;5036670;28;20386;-62
2022/04/27 09:40:50;;;;;;;6.45;4.05;;;;;;;;;;5036051;28;20119;-62
2022/04/27 09:43:16;;;;;;;9.93;3.72;;;;;;;;;;5039428;28;20025;-62
2022/04/27 09:45:45;;;;;;;11.80;4.13;;;;;;;;;;5043130;28;20039;-62
2022/04/27 09:48:18;;;;;;;6.47;3.70;;;;;;;;;;5039047;28;20052;-63
2022/04/27 09:50:47;;;;;;;14.48;4.38;;;;;;;;;;5035966;28;20027;-63
2022/04/27 09:53:15;;;;;;;9.50;3.70;;;;;;;;;;5032725;28;20032;-63
2022/04/27 09:56:01;;;;;;;11.85;4.18;;;;;;;;;;5037084;28;20029;-62
2022/04/27 09:58:28;;;;;;;19.60;5.00;;;;;;;;;;5041827;28;21114;-62
2022/04/27 10:00:57;;;;;;;9.98;4.07;;;;;;;;;;5036387;28;20123;-62
2022/04/27 10:03:25;;;;;;;6.05;3.38;;;;;;;;;;5035046;28;20132;-62
2022/04/27 10:05:51;;;;;;;8.05;4.15;;;;;;;;;;5036886;28;20047;-62
2022/04/27 10:08:19;;;;;;;11.02;3.53;;;;;;;;;;5032328;28;20117;-62
2022/04/27 10:10:46;;;;;;;8.35;3.70;;;;;;;;;;5038708;28;20033;-62
2022/04/27 10:13:13;;;;;;;8.55;3.90;;;;;;;;;;5041536;28;20367;-62
2022/04/27 10:15:42;;;;;;;6.78;3.10;;;;;;;;;;5040733;28;20037;-62
2022/04/27 10:18:14;;;;;;;4.35;3.10;;;;;;;;;;5034311;28;20041;-62
2022/04/27 10:20:40;;;;;;;8.02;4.05;;;;;;;;;;5036099;28;20075;-62
2022/04/27 10:23:33;;;;;;;11.95;4.45;;;;;;;;;;5033537;28;20049;-61
2022/04/27 10:26:16;;;;;;;8.43;3.92;;;;;;;;;;5035409;28;20426;-62
2022/04/27 10:28:50;;;;;;;6.82;3.42;;;;;;;;;;5032838;28;20037;-61
2022/04/27 10:31:42;;;;;;;6.32;3.33;;;;;;;;;;5035772;28;20120;-62
2022/04/27 10:34:18;;;;;;;9.48;3.35;;;;;;;;;;5037972;28;20552;-62
2022/04/27 10:36:47;;;;;;;4.43;2.97;;;;;;;;;;5041661;28;20049;-61
2022/04/27 10:39:12;;;;;;;9.73;3.92;;;;;;;;;;5038548;28;20367;-62
2022/04/27 10:41:39;;;;;;;10.55;4.03;;;;;;;;;;5036049;28;20137;-62
2022/04/27 10:44:05;;;;;;;7.60;3.60;;;;;;;;;;5038862;28;26929;-62
2022/04/27 10:46:43;;;;;;;7.15;3.17;;;;;;;;;;5038669;28;20490;-62
2022/04/27 10:49:28;;;;;;;7.63;3.20;;;;;;;;;;5037616;28;20108;-62
2022/04/27 10:52:02;;;;;;;7.18;3.05;;;;;;;;;;5035782;28;20060;-62
2022/04/27 10:54:31;;;;;;;7.32;3.88;;;;;;;;;;5033495;28;20044;-61
2022/04/27 10:57:15;;;;;;;14.38;4.25;;;;;;;;;;5034100;28;20099;-62
2022/04/27 10:59:48;;;;;;;4.88;3.67;;;;;;;;;;5037687;28;20493;-61
2022/04/27 11:02:33;;;;;;;7.15;3.10;;;;;;;;;;5032433;28;20385;-61
2022/04/27 11:05:00;;;;;;;10.57;3.30;;;;;;;;;;5032398;28;20793;-62
2022/04/27 11:07:48;;;;;;;10.68;3.28;;;;;;;;;;5033094;28;20029;-61
2022/04/27 11:10:15;;;;;;;5.35;3.50;;;;;;;;;;5039454;28;20078;-62
2022/04/27 11:12:46;;;;;;;6.85;3.20;;;;;;;;;;5038475;28;20059;-61
2022/04/27 11:15:16;;;;;;;5.10;3.00;;;;;;;;;;5040049;28;20028;-62
2022/04/27 11:17:41;;;;;;;18.17;3.40;;;;;;;;;;5039879;28;20037;-61
2022/04/27 11:20:28;;;;;;;5.63;2.95;;;;;;;;;;5034482;28;20367;-62
2022/04/27 11:22:55;;;;;;;7.13;3.08;;;;;;;;;;5032337;28;20037;-62
2022/04/27 11:25:27;;;;;;;8.23;3.15;;;;;;;;;;5042178;28;20052;-61
2022/04/27 11:27:52;;;;;;;11.68;3.30;;;;;;;;;;5040430;28;20095;-61
2022/04/27 11:30:20;;;;;;;6.93;3.20;;;;;;;;;;5035849;28;20064;-61
2022/04/27 11:32:50;;;;;;;5.85;3.08;;;;;;;;;;5037766;28;20033;-62
2022/04/27 11:35:16;;;;;;;8.65;2.97;;;;;;;;;;5031842;28;20043;-62
2022/04/27 11:37:42;;;;;;;7.78;3.20;;;;;;;;;;5032567;28;20040;-61
2022/04/27 11:40:19;;;;;;;7.60;3.08;;;;;;;;;;5036028;28;20029;-61
2022/04/27 11:42:46;;;;;;;6.13;3.22;;;;;;;;;;5041313;28;20066;-62
2022/04/27 11:45:17;;;;;;;9.10;3.60;;;;;;;;;;5033812;28;20032;-62
2022/04/27 11:47:42;;;;;;;5.28;3.13;;;;;;;;;;5037112;28;20025;-61
2022/04/27 11:50:08;;;;;;;7.20;2.97;;;;;;;;;;5037096;28;20036;-61
2022/04/27 11:52:38;;;;;;;7.07;3.05;;;;;;;;;;5037363;28;20108;-61
2022/04/27 11:55:14;;;;;;;6.85;3.13;;;;;;;;;;5036726;28;20050;-61
2022/04/27 11:57:43;;;;;;;5.35;3.10;;;;;;;;;;5037034;28;20032;-62
2022/04/27 12:00:09;;;;;;;8.85;3.50;;;;;;;;;;5040604;28;20128;-62
2022/04/27 12:02:35;;;;;;;10.07;3.08;;;;;;;;;;5040339;28;20067;-61
2022/04/27 12:05:01;;;;;;;9.02;3.20;;;;;;;;;;5035802;28;20457;-61
2022/04/27 12:07:37;;;;;;;9.65;3.40;;;;;;;;;;5033737;28;20029;-61
2022/04/27 12:10:04;;;;;;;6.38;2.90;;;;;;;;;;5037211;28;20056;-61
2022/04/27 12:12:31;;;;;;;3.70;3.03;;;;;;;;;;5042205;28;20095;-61
2022/04/27 12:15:04;;;;;;;3.50;3.10;;;;;;;;;;5043223;28;20029;-61
2022/04/27 12:17:45;;;;;;;8.30;3.80;;;;;;;;;;5035553;28;20107;-61
2022/04/27 12:20:31;;;;;;;10.00;3.30;;;;;;;;;;5035367;28;20044;-61
2022/04/27 12:23:00;;;;;;;7.55;2.83;;;;;;;;;;5030782;28;20120;-61
2022/04/27 12:25:58;;;;;;;4.78;2.90;;;;;;;;;;5040023;28;20033;-61
2022/04/27 12:28:26;;;;;;;6.20;2.80;;;;;;;;;;5036662;28;20033;-62
2022/04/27 12:31:02;;;;;;;7.38;2.97;;;;;;;;;;5037900;28;20040;-62
2022/04/27 12:33:34;;;;;;;7.18;2.92;;;;;;;;;;5042067;28;20029;-62
2022/04/27 12:39:05;;;;;;;4.78;3.00;;;;;;;;;;5039604;28;20461;-61
2022/04/27 12:41:39;;;;;;;5.25;2.45;;;;;;;;;;5037366;28;20815;-62
2022/04/27 12:44:05;;;;;;;5.50;3.03;;;;;;;;;;5040565;28;20034;-62
2022/04/27 12:46:31;;;;;;;5.40;2.83;;;;;;;;;;5039274;28;20057;-61
2022/04/27 12:49:07;;;;;;;5.57;3.05;;;;;;;;;;5041677;28;20477;-61
2022/04/27 12:51:35;;;;;;;6.03;2.92;;;;;;;;;;5038494;28;20452;-61
2022/04/27 12:54:04;;;;;;;5.32;2.83;;;;;;;;;;5035254;28;20054;-61
2022/04/27 12:56:34;;;;;;;8.10;3.17;;;;;;;;;;5037357;28;20386;-62
2022/04/27 12:59:06;;;;;;;3.00;2.70;;;;;;;;;;5038641;28;20482;-61
2022/04/27 13:01:32;;;;;;;7.65;2.75;;;;;;;;;;5037619;28;20073;-62
2022/04/27 13:03:58;;;;;;;9.85;3.50;;;;;;;;;;5042240;28;20041;-60
2022/04/27 13:06:24;;;;;;;8.25;2.67;;;;;;;;;;5036382;28;20474;-62
2022/04/27 13:08:50;;;;;;;8.05;3.03;;;;;;;;;;5037516;28;20043;-61
2022/04/27 13:14:03;;;;;;;7.25;2.53;;;;;;;;;;5035778;28;20108;-62
2022/04/27 13:16:29;;;;;;;4.32;2.60;;;;;;;;;;5040116;28;20040;-62
2022/04/27 13:18:55;;;;;;;9.15;3.08;;;;;;;;;;5040780;28;20040;-61
2022/04/27 13:21:22;;;;;;;3.65;2.95;;;;;;;;;;5039944;28;20040;-61
2022/04/27 13:23:48;;;;;;;14.60;3.40;;;;;;;;;;5036934;28;20114;-61
2022/04/27 13:26:14;;;;;;;3.78;2.53;;;;;;;;;;5033802;28;20017;-61
2022/04/27 13:28:40;;;;;;;8.02;2.70;;;;;;;;;;5038403;28;20033;-61
2022/04/27 13:31:09;;;;;;;6.32;2.95;;;;;;;;;;5039216;28;20068;-61
2022/04/27 13:33:35;;;;;;;6.30;2.35;;;;;;;;;;5035156;28;20030;-61
2022/04/27 13:36:01;;;;;;;6.18;2.78;;;;;;;;;;5037664;28;20418;-61
2022/04/27 13:38:30;;;;;;;7.20;2.80;;;;;;;;;;5037283;28;20455;-61
2022/04/27 13:40:57;;;;;;;5.90;2.67;;;;;;;;;;5036744;28;20029;-62
2022/04/27 13:43:23;;;;;;;9.45;3.00;;;;;;;;;;5039253;28;20116;-61
2022/04/27 13:45:48;;;;;;;7.65;2.80;;;;;;;;;;5066640;28;20151;-61
2022/04/27 13:48:14;;;;;;;8.20;2.70;;;;;;;;;;5036513;28;20390;-61
2022/04/27 13:50:40;;;;;;;6.15;2.53;;;;;;;;;;5038184;28;20025;-61
2022/04/27 13:53:06;;;;;;;5.57;2.40;;;;;;;;;;5036653;28;20057;-61
2022/04/27 13:55:32;;;;;;;10.77;3.75;;;;;;;;;;5037803;28;20022;-61
2022/04/27 13:57:59;;;;;;;5.20;2.65;;;;;;;;;;5039562;28;20107;-61
2022/04/27 14:00:25;;;;;;;6.68;3.17;;;;;;;;;;5039524;28;20021;-61
2022/04/27 14:02:51;;;;;;;10.57;3.08;;;;;;;;;;5033780;28;20315;-62
2022/04/27 14:05:17;;;;;;;7.22;2.75;;;;;;;;;;5038775;28;20517;-60
2022/04/27 14:07:45;;;;;;;9.05;2.50;;;;;;;;;;5043214;28;20045;-61
2022/04/27 14:10:13;;;;;;;7.18;3.08;;;;;;;;;;5037701;28;20578;-61
2022/04/27 14:15:25;;;;;;;12.05;2.83;;;;;;;;;;5038130;28;20029;-62
2022/04/27 14:20:35;;;;;;;8.75;2.55;;;;;;;;;;5037515;28;20032;-61
2022/04/27 14:23:01;;;;;;;10.32;2.80;;;;;;;;;;5036595;28;20095;-62
2022/04/27 14:25:27;;;;;;;5.72;2.72;;;;;;;;;;5039410;28;20033;-62
2022/04/27 14:27:53;;;;;;;8.57;2.97;;;;;;;;;;5036071;28;20037;-61
2022/04/27 14:30:19;;;;;;;9.20;2.67;;;;;;;;;;5040711;28;20039;-62
2022/04/27 14:32:45;;;;;;;8.30;2.63;;;;;;;;;;5038835;28;20041;-62
2022/04/27 14:35:11;;;;;;;11.70;3.30;;;;;;;;;;5035180;28;20104;-61
2022/04/27 14:37:36;;;;;;;12.10;3.28;;;;;;;;;;5036090;28;20029;-61
2022/04/27 14:40:03;;;;;;;9.77;2.78;;;;;;;;;;5037261;28;20489;-62
2022/04/27 14:42:29;;;;;;;10.85;3.15;;;;;;;;;;5042748;28;20104;-62
2022/04/27 14:44:55;;;;;;;3.42;2.30;;;;;;;;;;5033999;28;20029;-61
2022/04/27 14:47:21;;;;;;;8.30;3.00;;;;;;;;;;5033794;28;20379;-61
2022/04/27 14:49:47;;;;;;;9.75;3.53;;;;;;;;;;5041366;28;20971;-61
2022/04/27 14:52:13;;;;;;;7.43;2.60;;;;;;;;;;5035726;28;20032;-62
2022/04/27 14:54:39;;;;;;;8.02;2.97;;;;;;;;;;5035820;28;20050;-62
2022/04/27 14:57:04;;;;;;;6.20;3.00;;;;;;;;;;5034875;28;20044;-62
2022/04/27 14:59:30;;;;;;;4.43;2.40;;;;;;;;;;5035748;28;20441;-62
2022/04/27 15:01:56;;;;;;;11.50;2.88;;;;;;;;;;5036901;28;20124;-62
2022/04/27 15:04:22;;;;;;;7.15;2.47;;;;;;;;;;5036136;28;20025;-62
2022/04/27 15:06:48;;;;;;;7.72;2.15;;;;;;;;;;5039118;28;20075;-62
2022/04/27 15:09:13;;;;;;;7.45;2.30;;;;;;;;;;5039366;28;20401;-62